EIN860 EICK-LEPA
Flight info
| Callsign | EIN860 |
|---|---|
| Flight time | 2h 10m |
| Altitude | 35000 |
| Route | ORTOM1S ORTOM DCT TUVEN DCT TULTA/N0447F350 DCT TURDO DCT INCEF DCT NENEM DCT BADRU P152 PPN/N0448F360 M601 BCN/N0452F330 Z167 LORES |
| Aircraft | A320/M-SDE3FGHIRWY/LB1 |
Departure
| Time | 2026-05-07 20:42 |
|---|---|
| Airport | Cork International Airport (EICK) |
Arrival
| Time | 2026-05-07 22:52 |
|---|---|
| Airport | Palma de Mallorca Airport (LEPA) |
| Time | Latitude | Longitude | Altitude | Speed | Heading |
|---|---|---|---|---|---|
| 2026-05-07 20:10 | 51.84981 | -8.49127 | 503 ft | 0 kts | 70° |
| 2026-05-07 20:34 | 51.84980 | -8.49129 | 503 ft | 2 kts | 70° |
| 2026-05-07 20:34 | 51.84971 | -8.49168 | 503 ft | 4 kts | 67° |
| 2026-05-07 20:34 | 51.84960 | -8.49207 | 503 ft | 4 kts | 62° |
| 2026-05-07 20:35 | 51.84946 | -8.49244 | 503 ft | 4 kts | 48° |
| 2026-05-07 20:35 | 51.84927 | -8.49266 | 503 ft | 4 kts | 358° |
| 2026-05-07 20:35 | 51.84923 | -8.49266 | 503 ft | 0 kts | 348° |
| 2026-05-07 20:38 | 51.84963 | -8.49280 | 503 ft | 12 kts | 347° |
| 2026-05-07 20:39 | 51.85025 | -8.49315 | 503 ft | 8 kts | 339° |
| 2026-05-07 20:39 | 51.85075 | -8.49345 | 503 ft | 7 kts | 339° |
| 2026-05-07 20:39 | 51.85118 | -8.49372 | 503 ft | 9 kts | 339° |
| 2026-05-07 20:39 | 51.85139 | -8.49473 | 491 ft | 13 kts | 236° |
| 2026-05-07 20:40 | 51.85055 | -8.49545 | 483 ft | 15 kts | 205° |
| 2026-05-07 20:40 | 51.84975 | -8.49601 | 482 ft | 12 kts | 183° |
| 2026-05-07 20:40 | 51.84921 | -8.49576 | 485 ft | 0 kts | 159° |
| 2026-05-07 20:41 | 51.84815 | -8.49513 | 491 ft | 50 kts | 160° |
| 2026-05-07 20:41 | 51.84255 | -8.49183 | 480 ft | 119 kts | 160° |
| 2026-05-07 20:41 | 51.83310 | -8.48623 | 579 ft | 161 kts | 160° |
| 2026-05-07 20:42 | 51.82223 | -8.48027 | 1140 ft | 170 kts | 166° |
| 2026-05-07 20:42 | 51.81060 | -8.47510 | 1797 ft | 179 kts | 166° |
| 2026-05-07 20:42 | 51.79833 | -8.46908 | 2336 ft | 188 kts | 165° |
| 2026-05-07 20:42 | 51.78530 | -8.46328 | 2791 ft | 202 kts | 169° |
| 2026-05-07 20:43 | 51.77109 | -8.45902 | 3292 ft | 213 kts | 172° |
| 2026-05-07 20:43 | 51.75584 | -8.45503 | 3767 ft | 231 kts | 172° |
| 2026-05-07 20:43 | 51.73933 | -8.44969 | 4270 ft | 251 kts | 167° |
| 2026-05-07 20:43 | 51.72192 | -8.44336 | 5061 ft | 258 kts | 169° |
| 2026-05-07 20:44 | 51.70406 | -8.43851 | 5945 ft | 262 kts | 174° |
| 2026-05-07 20:44 | 51.68574 | -8.43535 | 6803 ft | 266 kts | 175° |
| 2026-05-07 20:44 | 51.66718 | -8.43261 | 7646 ft | 270 kts | 176° |
| 2026-05-07 20:44 | 51.64830 | -8.42997 | 8463 ft | 274 kts | 176° |
| 2026-05-07 20:45 | 51.62913 | -8.42733 | 9296 ft | 278 kts | 176° |
| 2026-05-07 20:45 | 51.60969 | -8.42460 | 10114 ft | 282 kts | 176° |
| 2026-05-07 20:45 | 51.58946 | -8.42171 | 10478 ft | 303 kts | 176° |
| 2026-05-07 20:45 | 51.56770 | -8.41862 | 10691 ft | 326 kts | 176° |
| 2026-05-07 20:46 | 51.54443 | -8.41526 | 11030 ft | 342 kts | 176° |
| 2026-05-07 20:46 | 51.52048 | -8.41169 | 11689 ft | 348 kts | 176° |
| 2026-05-07 20:46 | 51.49631 | -8.40802 | 12416 ft | 351 kts | 176° |
| 2026-05-07 20:46 | 51.47187 | -8.40431 | 13142 ft | 354 kts | 176° |
| 2026-05-07 20:47 | 51.44722 | -8.40060 | 13860 ft | 357 kts | 176° |
| 2026-05-07 20:47 | 51.42240 | -8.39687 | 14489 ft | 360 kts | 176° |
| 2026-05-07 20:47 | 51.39730 | -8.39315 | 15115 ft | 364 kts | 176° |
| 2026-05-07 20:47 | 51.37200 | -8.38944 | 15720 ft | 367 kts | 176° |
| 2026-05-07 20:48 | 51.34644 | -8.38570 | 16322 ft | 371 kts | 176° |
| 2026-05-07 20:48 | 51.32064 | -8.38193 | 16927 ft | 374 kts | 176° |
| 2026-05-07 20:48 | 51.29459 | -8.37812 | 17525 ft | 378 kts | 176° |
| 2026-05-07 20:48 | 51.26827 | -8.37423 | 18117 ft | 382 kts | 176° |
| 2026-05-07 20:49 | 51.24165 | -8.37033 | 18631 ft | 386 kts | 176° |
| 2026-05-07 20:49 | 51.21514 | -8.36644 | 19156 ft | 389 kts | 176° |
| 2026-05-07 20:49 | 51.18811 | -8.36242 | 19708 ft | 391 kts | 176° |
| 2026-05-07 20:49 | 51.16094 | -8.35838 | 20252 ft | 394 kts | 176° |
| 2026-05-07 20:50 | 51.13353 | -8.35435 | 20788 ft | 396 kts | 176° |
| 2026-05-07 20:50 | 51.10595 | -8.35031 | 21308 ft | 398 kts | 176° |
| 2026-05-07 20:50 | 51.07833 | -8.34626 | 21813 ft | 401 kts | 176° |
| 2026-05-07 20:50 | 51.05047 | -8.34221 | 22308 ft | 403 kts | 176° |
| 2026-05-07 20:51 | 51.02248 | -8.33818 | 22782 ft | 405 kts | 176° |
| 2026-05-07 20:51 | 50.99420 | -8.33413 | 23229 ft | 408 kts | 176° |
| 2026-05-07 20:51 | 50.97546 | -8.33145 | 23524 ft | 410 kts | 176° |
| 2026-05-07 20:51 | 50.94696 | -8.32736 | 23900 ft | 412 kts | 176° |
| 2026-05-07 20:52 | 50.90887 | -8.32185 | 24343 ft | 416 kts | 176° |
| 2026-05-07 20:52 | 50.88933 | -8.31899 | 24559 ft | 419 kts | 176° |
| 2026-05-07 20:52 | 50.85073 | -8.31338 | 24977 ft | 423 kts | 176° |
| 2026-05-07 20:52 | 50.83086 | -8.31053 | 25188 ft | 425 kts | 176° |
| 2026-05-07 20:53 | 50.80127 | -8.30628 | 25494 ft | 428 kts | 176° |
| 2026-05-07 20:53 | 50.77152 | -8.30200 | 25788 ft | 431 kts | 176° |
| 2026-05-07 20:53 | 50.74190 | -8.29771 | 26083 ft | 434 kts | 176° |
| 2026-05-07 20:53 | 50.71177 | -8.29331 | 26376 ft | 437 kts | 176° |
| 2026-05-07 20:54 | 50.68137 | -8.28890 | 26660 ft | 440 kts | 176° |
| 2026-05-07 20:54 | 50.65076 | -8.28450 | 26938 ft | 443 kts | 176° |
| 2026-05-07 20:54 | 50.62000 | -8.28014 | 27210 ft | 446 kts | 177° |
| 2026-05-07 20:54 | 50.58897 | -8.27578 | 27477 ft | 448 kts | 177° |
| 2026-05-07 20:55 | 50.55782 | -8.27139 | 27709 ft | 452 kts | 177° |
| 2026-05-07 20:55 | 50.52638 | -8.26690 | 27933 ft | 455 kts | 176° |
| 2026-05-07 20:55 | 50.49475 | -8.26233 | 28173 ft | 458 kts | 176° |
| 2026-05-07 20:55 | 50.46293 | -8.25774 | 28410 ft | 460 kts | 177° |
| 2026-05-07 20:56 | 50.43098 | -8.25316 | 28638 ft | 463 kts | 177° |
| 2026-05-07 20:56 | 50.39878 | -8.24859 | 28861 ft | 465 kts | 177° |
| 2026-05-07 20:56 | 50.36646 | -8.24405 | 29077 ft | 468 kts | 177° |
| 2026-05-07 20:56 | 50.33392 | -8.23951 | 29308 ft | 470 kts | 177° |
| 2026-05-07 20:57 | 50.30133 | -8.23492 | 29549 ft | 471 kts | 177° |
| 2026-05-07 20:57 | 50.26861 | -8.23027 | 29828 ft | 472 kts | 177° |
| 2026-05-07 20:57 | 50.23591 | -8.22562 | 30113 ft | 473 kts | 177° |
| 2026-05-07 20:57 | 50.20313 | -8.22102 | 30370 ft | 473 kts | 178° |
| 2026-05-07 20:58 | 50.17029 | -8.21641 | 30652 ft | 473 kts | 178° |
| 2026-05-07 20:58 | 50.13758 | -8.21183 | 30948 ft | 472 kts | 178° |
| 2026-05-07 20:58 | 50.10491 | -8.20725 | 31212 ft | 472 kts | 178° |
| 2026-05-07 20:58 | 50.07220 | -8.20265 | 31478 ft | 472 kts | 178° |
| 2026-05-07 20:59 | 50.03954 | -8.19806 | 31762 ft | 471 kts | 178° |
| 2026-05-07 20:59 | 50.00694 | -8.19356 | 32065 ft | 470 kts | 178° |
| 2026-05-07 20:59 | 49.97445 | -8.18904 | 32373 ft | 468 kts | 178° |
| 2026-05-07 20:59 | 49.94235 | -8.18453 | 32681 ft | 467 kts | 178° |
| 2026-05-07 21:00 | 49.90963 | -8.17995 | 32992 ft | 466 kts | 179° |
| 2026-05-07 21:00 | 49.87777 | -8.17550 | 33271 ft | 465 kts | 179° |
| 2026-05-07 21:00 | 49.84543 | -8.17112 | 33559 ft | 464 kts | 179° |
| 2026-05-07 21:00 | 49.81330 | -8.16679 | 33863 ft | 463 kts | 179° |
| 2026-05-07 21:01 | 49.78120 | -8.16239 | 34145 ft | 462 kts | 180° |
| 2026-05-07 21:01 | 49.74923 | -8.15793 | 34409 ft | 461 kts | 179° |
| 2026-05-07 21:01 | 49.71731 | -8.15343 | 34667 ft | 460 kts | 179° |
| 2026-05-07 21:01 | 49.68546 | -8.14903 | 34905 ft | 459 kts | 179° |
| 2026-05-07 21:02 | 49.65364 | -8.14464 | 34997 ft | 459 kts | 179° |
| 2026-05-07 21:02 | 49.59010 | -8.13587 | 35025 ft | 458 kts | 179° |
| 2026-05-07 21:03 | 49.52623 | -8.12719 | 35024 ft | 465 kts | 179° |
| 2026-05-07 21:03 | 49.46112 | -8.11844 | 35009 ft | 473 kts | 179° |
| 2026-05-07 21:04 | 49.39575 | -8.10959 | 35024 ft | 476 kts | 179° |
| 2026-05-07 21:04 | 49.32976 | -8.10052 | 35026 ft | 476 kts | 179° |
| 2026-05-07 21:04 | 49.29705 | -8.09149 | 35023 ft | 483 kts | 166° |
| 2026-05-07 21:05 | 49.26546 | -8.07310 | 35027 ft | 486 kts | 162° |
| 2026-05-07 21:05 | 49.20292 | -8.03381 | 35012 ft | 487 kts | 161° |
| 2026-05-07 21:06 | 49.14025 | -7.99387 | 35020 ft | 487 kts | 161° |
| 2026-05-07 21:06 | 49.07763 | -7.95431 | 35038 ft | 487 kts | 161° |
| 2026-05-07 21:07 | 49.01489 | -7.91501 | 35004 ft | 487 kts | 162° |
| 2026-05-07 21:07 | 48.95208 | -7.87596 | 35015 ft | 488 kts | 162° |
| 2026-05-07 21:08 | 48.88915 | -7.83689 | 35016 ft | 488 kts | 162° |
| 2026-05-07 21:08 | 48.82624 | -7.79772 | 35021 ft | 489 kts | 162° |
| 2026-05-07 21:09 | 48.76322 | -7.75878 | 35007 ft | 489 kts | 162° |
| 2026-05-07 21:09 | 48.70021 | -7.71996 | 35012 ft | 489 kts | 162° |
| 2026-05-07 21:10 | 48.63711 | -7.68108 | 35017 ft | 490 kts | 162° |
| 2026-05-07 21:10 | 48.57398 | -7.64235 | 35026 ft | 490 kts | 162° |
| 2026-05-07 21:11 | 48.51123 | -7.60392 | 35033 ft | 490 kts | 162° |
| 2026-05-07 21:11 | 48.41650 | -7.54614 | 35029 ft | 489 kts | 162° |
| 2026-05-07 21:12 | 48.35337 | -7.50765 | 35016 ft | 489 kts | 162° |
| 2026-05-07 21:12 | 48.29020 | -7.46937 | 35012 ft | 489 kts | 162° |
| 2026-05-07 21:13 | 48.22701 | -7.43119 | 35013 ft | 490 kts | 162° |
| 2026-05-07 21:13 | 48.16371 | -7.39310 | 35012 ft | 490 kts | 162° |
| 2026-05-07 21:14 | 48.10053 | -7.35498 | 35016 ft | 490 kts | 162° |
| 2026-05-07 21:14 | 48.03735 | -7.31694 | 35018 ft | 490 kts | 162° |
| 2026-05-07 21:15 | 47.97403 | -7.27913 | 35007 ft | 490 kts | 162° |
| 2026-05-07 21:15 | 47.91072 | -7.24146 | 35017 ft | 490 kts | 162° |
| 2026-05-07 21:16 | 47.84737 | -7.20372 | 35022 ft | 489 kts | 162° |
| 2026-05-07 21:16 | 47.78414 | -7.16617 | 35015 ft | 490 kts | 162° |
| 2026-05-07 21:17 | 47.72081 | -7.12861 | 35012 ft | 490 kts | 162° |
| 2026-05-07 21:17 | 47.65739 | -7.09111 | 35011 ft | 491 kts | 162° |
| 2026-05-07 21:18 | 47.59438 | -7.05406 | 35011 ft | 491 kts | 163° |
| 2026-05-07 21:18 | 47.53088 | -7.01684 | 35008 ft | 491 kts | 163° |
| 2026-05-07 21:19 | 47.46745 | -6.97941 | 35012 ft | 492 kts | 160° |
| 2026-05-07 21:19 | 47.40871 | -6.92576 | 35017 ft | 500 kts | 147° |
| 2026-05-07 21:20 | 47.35274 | -6.86480 | 35006 ft | 500 kts | 147° |
| 2026-05-07 21:20 | 47.29669 | -6.80423 | 35013 ft | 500 kts | 147° |
| 2026-05-07 21:21 | 47.24054 | -6.74363 | 35013 ft | 500 kts | 147° |
| 2026-05-07 21:21 | 47.18430 | -6.68326 | 35001 ft | 500 kts | 147° |
| 2026-05-07 21:22 | 47.12812 | -6.62303 | 35011 ft | 500 kts | 147° |
| 2026-05-07 21:22 | 47.07189 | -6.56274 | 35020 ft | 500 kts | 147° |
| 2026-05-07 21:23 | 47.01570 | -6.50264 | 35019 ft | 500 kts | 147° |
| 2026-05-07 21:23 | 46.95971 | -6.44305 | 35010 ft | 500 kts | 147° |
| 2026-05-07 21:24 | 46.90340 | -6.38336 | 35013 ft | 500 kts | 147° |
| 2026-05-07 21:24 | 46.84708 | -6.32375 | 35011 ft | 500 kts | 147° |
| 2026-05-07 21:25 | 46.79074 | -6.26422 | 34990 ft | 500 kts | 147° |
| 2026-05-07 21:25 | 46.73436 | -6.20480 | 35009 ft | 499 kts | 147° |
| 2026-05-07 21:26 | 46.67788 | -6.14559 | 35010 ft | 499 kts | 147° |
| 2026-05-07 21:26 | 46.62155 | -6.08664 | 35004 ft | 499 kts | 147° |
| 2026-05-07 21:27 | 46.56521 | -6.02764 | 35011 ft | 499 kts | 147° |
| 2026-05-07 21:27 | 46.50879 | -5.96872 | 35015 ft | 499 kts | 147° |
| 2026-05-07 21:28 | 46.45235 | -5.91006 | 35016 ft | 498 kts | 147° |
| 2026-05-07 21:28 | 46.39596 | -5.85163 | 34986 ft | 499 kts | 147° |
| 2026-05-07 21:29 | 46.33957 | -5.79318 | 34988 ft | 498 kts | 147° |
| 2026-05-07 21:29 | 46.28309 | -5.73500 | 34999 ft | 498 kts | 147° |
| 2026-05-07 21:30 | 46.22690 | -5.67728 | 34981 ft | 498 kts | 147° |
| 2026-05-07 21:30 | 46.17005 | -5.61889 | 34984 ft | 498 kts | 148° |
| 2026-05-07 21:31 | 46.11352 | -5.56100 | 34992 ft | 498 kts | 147° |
| 2026-05-07 21:31 | 46.05729 | -5.50369 | 34984 ft | 498 kts | 147° |
| 2026-05-07 21:32 | 46.00070 | -5.44600 | 34970 ft | 499 kts | 147° |
| 2026-05-07 21:32 | 45.94407 | -5.38844 | 34973 ft | 499 kts | 148° |
| 2026-05-07 21:33 | 45.88738 | -5.33099 | 34971 ft | 498 kts | 148° |
| 2026-05-07 21:33 | 45.83070 | -5.27359 | 34952 ft | 498 kts | 148° |
| 2026-05-07 21:34 | 45.77400 | -5.21633 | 34958 ft | 499 kts | 148° |
| 2026-05-07 21:34 | 45.71713 | -5.15920 | 34963 ft | 499 kts | 148° |
| 2026-05-07 21:35 | 45.66025 | -5.10219 | 34957 ft | 499 kts | 148° |
| 2026-05-07 21:35 | 45.60334 | -5.04533 | 34976 ft | 499 kts | 148° |
| 2026-05-07 21:36 | 45.55595 | -4.99810 | 34972 ft | 499 kts | 148° |
| 2026-05-07 21:36 | 45.50062 | -4.93810 | 34975 ft | 502 kts | 140° |
| 2026-05-07 21:37 | 45.44862 | -4.87157 | 34959 ft | 502 kts | 140° |
| 2026-05-07 21:37 | 45.39648 | -4.80530 | 34964 ft | 503 kts | 140° |
| 2026-05-07 21:38 | 45.34432 | -4.73908 | 34968 ft | 503 kts | 140° |
| 2026-05-07 21:38 | 45.29218 | -4.67294 | 34968 ft | 502 kts | 140° |
| 2026-05-07 21:39 | 45.23995 | -4.60697 | 34963 ft | 502 kts | 140° |
| 2026-05-07 21:39 | 45.18763 | -4.54115 | 34963 ft | 502 kts | 141° |
| 2026-05-07 21:40 | 45.13539 | -4.47555 | 34962 ft | 502 kts | 141° |
| 2026-05-07 21:40 | 45.08306 | -4.41004 | 34949 ft | 502 kts | 141° |
| 2026-05-07 21:41 | 45.03061 | -4.34452 | 34963 ft | 503 kts | 141° |
| 2026-05-07 21:41 | 44.97813 | -4.27912 | 34956 ft | 503 kts | 141° |
| 2026-05-07 21:42 | 44.92598 | -4.21431 | 34959 ft | 503 kts | 141° |
| 2026-05-07 21:42 | 44.87340 | -4.14921 | 34945 ft | 503 kts | 141° |
| 2026-05-07 21:43 | 44.82084 | -4.08412 | 34948 ft | 503 kts | 141° |
| 2026-05-07 21:43 | 44.76819 | -4.01915 | 34949 ft | 503 kts | 141° |
| 2026-05-07 21:44 | 44.71551 | -3.95421 | 34951 ft | 504 kts | 141° |
| 2026-05-07 21:44 | 44.66275 | -3.88935 | 34956 ft | 504 kts | 141° |
| 2026-05-07 21:45 | 44.60989 | -3.82457 | 34950 ft | 504 kts | 141° |
| 2026-05-07 21:45 | 44.55716 | -3.75998 | 34958 ft | 503 kts | 141° |
| 2026-05-07 21:46 | 44.50436 | -3.69566 | 34942 ft | 503 kts | 141° |
| 2026-05-07 21:46 | 44.45148 | -3.63150 | 34939 ft | 503 kts | 141° |
| 2026-05-07 21:47 | 44.39866 | -3.56753 | 34936 ft | 503 kts | 141° |
| 2026-05-07 21:47 | 44.34574 | -3.50354 | 34926 ft | 503 kts | 141° |
| 2026-05-07 21:48 | 44.29272 | -3.43957 | 34915 ft | 504 kts | 141° |
| 2026-05-07 21:48 | 44.23973 | -3.37577 | 34934 ft | 503 kts | 141° |
| 2026-05-07 21:49 | 44.18709 | -3.31254 | 34940 ft | 502 kts | 141° |
| 2026-05-07 21:49 | 44.13416 | -3.24914 | 34922 ft | 502 kts | 142° |
| 2026-05-07 21:50 | 44.08107 | -3.18579 | 34920 ft | 502 kts | 142° |
| 2026-05-07 21:50 | 44.02789 | -3.12278 | 34920 ft | 502 kts | 142° |
| 2026-05-07 21:51 | 43.97368 | -3.06149 | 34893 ft | 502 kts | 144° |
| 2026-05-07 21:51 | 43.91912 | -3.00109 | 34922 ft | 501 kts | 144° |
| 2026-05-07 21:52 | 43.86493 | -2.94059 | 34930 ft | 500 kts | 143° |
| 2026-05-07 21:52 | 43.81090 | -2.87989 | 34930 ft | 499 kts | 143° |
| 2026-05-07 21:53 | 43.75681 | -2.81938 | 34900 ft | 500 kts | 144° |
| 2026-05-07 21:53 | 43.70265 | -2.75910 | 34897 ft | 500 kts | 144° |
| 2026-05-07 21:54 | 43.64842 | -2.69877 | 34891 ft | 501 kts | 144° |
| 2026-05-07 21:54 | 43.59412 | -2.63837 | 34906 ft | 500 kts | 144° |
| 2026-05-07 21:55 | 43.53986 | -2.57832 | 34908 ft | 501 kts | 144° |
| 2026-05-07 21:55 | 43.48555 | -2.51846 | 34909 ft | 501 kts | 144° |
| 2026-05-07 21:56 | 43.43116 | -2.45837 | 34910 ft | 502 kts | 144° |
| 2026-05-07 21:56 | 43.37699 | -2.39868 | 34900 ft | 503 kts | 144° |
| 2026-05-07 21:57 | 43.32224 | -2.33872 | 34904 ft | 504 kts | 144° |
| 2026-05-07 21:57 | 43.26734 | -2.27869 | 34922 ft | 504 kts | 144° |
| 2026-05-07 21:58 | 43.21257 | -2.21891 | 34949 ft | 503 kts | 144° |
| 2026-05-07 21:58 | 43.15776 | -2.15924 | 34952 ft | 503 kts | 144° |
| 2026-05-07 21:59 | 43.10302 | -2.09976 | 34953 ft | 502 kts | 144° |
| 2026-05-07 21:59 | 43.04817 | -2.04029 | 34964 ft | 503 kts | 144° |
| 2026-05-07 22:00 | 42.99340 | -1.98106 | 34939 ft | 503 kts | 145° |
| 2026-05-07 22:00 | 42.93834 | -1.92167 | 34936 ft | 505 kts | 145° |
| 2026-05-07 22:01 | 42.88316 | -1.86223 | 34975 ft | 505 kts | 145° |
| 2026-05-07 22:01 | 42.82801 | -1.80300 | 34992 ft | 504 kts | 145° |
| 2026-05-07 22:02 | 42.77296 | -1.74391 | 34995 ft | 504 kts | 143° |
| 2026-05-07 22:02 | 42.72581 | -1.67290 | 34990 ft | 510 kts | 124° |
| 2026-05-07 22:03 | 42.69350 | -1.58685 | 34994 ft | 512 kts | 116° |
| 2026-05-07 22:03 | 42.66291 | -1.49944 | 35002 ft | 511 kts | 116° |
| 2026-05-07 22:04 | 42.63230 | -1.41317 | 35008 ft | 510 kts | 116° |
| 2026-05-07 22:04 | 42.60143 | -1.32650 | 34994 ft | 509 kts | 117° |
| 2026-05-07 22:05 | 42.57061 | -1.23975 | 34998 ft | 510 kts | 117° |
| 2026-05-07 22:05 | 42.53976 | -1.15310 | 35012 ft | 511 kts | 117° |
| 2026-05-07 22:06 | 42.50889 | -1.06643 | 35035 ft | 509 kts | 117° |
| 2026-05-07 22:06 | 42.47792 | -0.98009 | 35032 ft | 508 kts | 117° |
| 2026-05-07 22:07 | 42.44690 | -0.89412 | 35044 ft | 508 kts | 117° |
| 2026-05-07 22:07 | 42.41594 | -0.80829 | 35037 ft | 507 kts | 117° |
| 2026-05-07 22:08 | 42.38483 | -0.72251 | 35049 ft | 507 kts | 117° |
| 2026-05-07 22:08 | 42.35380 | -0.63697 | 35051 ft | 506 kts | 117° |
| 2026-05-07 22:09 | 42.32283 | -0.55173 | 35054 ft | 505 kts | 117° |
| 2026-05-07 22:09 | 42.29179 | -0.46671 | 35053 ft | 504 kts | 117° |
| 2026-05-07 22:10 | 42.26081 | -0.38185 | 35051 ft | 504 kts | 118° |
| 2026-05-07 22:10 | 42.22977 | -0.29715 | 35054 ft | 503 kts | 118° |
| 2026-05-07 22:11 | 42.19860 | -0.21258 | 35057 ft | 503 kts | 118° |
| 2026-05-07 22:11 | 42.16733 | -0.12798 | 35020 ft | 505 kts | 118° |
| 2026-05-07 22:12 | 42.13595 | -0.04313 | 35022 ft | 507 kts | 118° |
| 2026-05-07 22:12 | 42.10447 | 0.04174 | 35035 ft | 506 kts | 118° |
| 2026-05-07 22:13 | 42.07291 | 0.12614 | 35058 ft | 504 kts | 118° |
| 2026-05-07 22:13 | 42.04137 | 0.21031 | 35059 ft | 503 kts | 118° |
| 2026-05-07 22:14 | 42.01011 | 0.29371 | 35058 ft | 502 kts | 118° |
| 2026-05-07 22:14 | 41.97862 | 0.37752 | 35039 ft | 502 kts | 118° |
| 2026-05-07 22:15 | 41.94711 | 0.46093 | 35062 ft | 500 kts | 119° |
| 2026-05-07 22:15 | 41.91567 | 0.54411 | 35062 ft | 498 kts | 119° |
| 2026-05-07 22:16 | 41.88435 | 0.62686 | 35058 ft | 497 kts | 119° |
| 2026-05-07 22:16 | 41.85291 | 0.70942 | 35056 ft | 496 kts | 119° |
| 2026-05-07 22:17 | 41.82149 | 0.79179 | 35056 ft | 495 kts | 120° |
| 2026-05-07 22:17 | 41.79022 | 0.87369 | 35064 ft | 492 kts | 120° |
| 2026-05-07 22:18 | 41.74319 | 0.99611 | 35011 ft | 492 kts | 120° |
| 2026-05-07 22:19 | 41.71167 | 1.07778 | 35008 ft | 493 kts | 120° |
| 2026-05-07 22:19 | 41.68547 | 1.14564 | 35006 ft | 494 kts | 120° |
| 2026-05-07 22:20 | 41.65400 | 1.22697 | 35065 ft | 490 kts | 121° |
| 2026-05-07 22:20 | 41.62261 | 1.30776 | 35074 ft | 487 kts | 121° |
| 2026-05-07 22:21 | 41.59133 | 1.38794 | 35071 ft | 485 kts | 121° |
| 2026-05-07 22:21 | 41.56016 | 1.46773 | 35069 ft | 484 kts | 121° |
| 2026-05-07 22:22 | 41.52896 | 1.54744 | 35034 ft | 485 kts | 121° |
| 2026-05-07 22:22 | 41.49793 | 1.62646 | 35057 ft | 483 kts | 121° |
| 2026-05-07 22:23 | 41.46657 | 1.70598 | 35064 ft | 481 kts | 121° |
| 2026-05-07 22:23 | 41.43546 | 1.78491 | 35063 ft | 480 kts | 121° |
| 2026-05-07 22:24 | 41.40455 | 1.86318 | 35055 ft | 480 kts | 121° |
| 2026-05-07 22:24 | 41.37322 | 1.94202 | 35047 ft | 479 kts | 122° |
| 2026-05-07 22:25 | 41.34216 | 2.01976 | 35051 ft | 478 kts | 122° |
| 2026-05-07 22:25 | 41.30591 | 2.09275 | 35023 ft | 469 kts | 137° |
| 2026-05-07 22:26 | 41.25565 | 2.14610 | 35012 ft | 458 kts | 155° |
| 2026-05-07 22:26 | 41.19987 | 2.18734 | 35009 ft | 459 kts | 155° |
| 2026-05-07 22:27 | 41.14415 | 2.22888 | 35007 ft | 460 kts | 155° |
| 2026-05-07 22:27 | 41.08829 | 2.27066 | 34993 ft | 461 kts | 155° |
| 2026-05-07 22:28 | 41.03222 | 2.31230 | 34987 ft | 463 kts | 155° |
| 2026-05-07 22:28 | 40.97594 | 2.35378 | 34995 ft | 463 kts | 155° |
| 2026-05-07 22:29 | 40.91962 | 2.39528 | 35004 ft | 464 kts | 155° |
| 2026-05-07 22:29 | 40.86325 | 2.43688 | 35002 ft | 464 kts | 155° |
| 2026-05-07 22:30 | 40.80685 | 2.47831 | 35015 ft | 464 kts | 155° |
| 2026-05-07 22:30 | 40.75046 | 2.51970 | 35021 ft | 464 kts | 155° |
| 2026-05-07 22:31 | 40.69404 | 2.56103 | 35024 ft | 464 kts | 155° |
| 2026-05-07 22:31 | 40.63760 | 2.60228 | 35022 ft | 464 kts | 155° |
| 2026-05-07 22:31 | 40.60930 | 2.62292 | 34443 ft | 466 kts | 155° |
| 2026-05-07 22:32 | 40.58112 | 2.64349 | 33683 ft | 459 kts | 155° |
| 2026-05-07 22:32 | 40.55339 | 2.66374 | 32744 ft | 455 kts | 155° |
| 2026-05-07 22:32 | 40.52570 | 2.68388 | 31692 ft | 453 kts | 154° |
| 2026-05-07 22:32 | 40.49825 | 2.70383 | 30698 ft | 450 kts | 154° |
| 2026-05-07 22:33 | 40.47080 | 2.72378 | 29458 ft | 451 kts | 154° |
| 2026-05-07 22:33 | 40.44337 | 2.74370 | 28226 ft | 451 kts | 153° |
| 2026-05-07 22:33 | 40.41613 | 2.76342 | 27537 ft | 441 kts | 153° |
| 2026-05-07 22:33 | 40.38948 | 2.78274 | 26816 ft | 434 kts | 153° |
| 2026-05-07 22:34 | 40.36327 | 2.80172 | 26093 ft | 428 kts | 153° |
| 2026-05-07 22:34 | 40.33730 | 2.82049 | 25383 ft | 423 kts | 153° |
| 2026-05-07 22:34 | 40.31162 | 2.83903 | 24681 ft | 419 kts | 153° |
| 2026-05-07 22:34 | 40.28620 | 2.85737 | 23999 ft | 416 kts | 153° |
| 2026-05-07 22:35 | 40.26094 | 2.87556 | 23266 ft | 413 kts | 153° |
| 2026-05-07 22:35 | 40.23621 | 2.89332 | 22594 ft | 408 kts | 153° |
| 2026-05-07 22:35 | 40.21147 | 2.91110 | 21973 ft | 404 kts | 153° |
| 2026-05-07 22:35 | 40.18664 | 2.92900 | 21353 ft | 400 kts | 153° |
| 2026-05-07 22:36 | 40.16293 | 2.94615 | 21106 ft | 388 kts | 153° |
| 2026-05-07 22:36 | 40.13975 | 2.96294 | 20973 ft | 374 kts | 153° |
| 2026-05-07 22:36 | 40.11737 | 2.97906 | 20845 ft | 360 kts | 153° |
| 2026-05-07 22:36 | 40.09587 | 2.99451 | 20723 ft | 347 kts | 153° |
| 2026-05-07 22:37 | 40.07481 | 3.00872 | 20576 ft | 334 kts | 160° |
| 2026-05-07 22:37 | 40.05283 | 3.01671 | 20325 ft | 324 kts | 174° |
| 2026-05-07 22:37 | 40.03047 | 3.01760 | 20035 ft | 323 kts | 186° |
| 2026-05-07 22:37 | 40.00845 | 3.01153 | 19512 ft | 325 kts | 198° |
| 2026-05-07 22:38 | 39.98712 | 3.00190 | 19087 ft | 324 kts | 199° |
| 2026-05-07 22:38 | 39.96561 | 2.99221 | 18524 ft | 329 kts | 198° |
| 2026-05-07 22:38 | 39.94428 | 2.98265 | 18325 ft | 321 kts | 198° |
| 2026-05-07 22:38 | 39.92330 | 2.97332 | 18013 ft | 316 kts | 198° |
| 2026-05-07 22:39 | 39.90257 | 2.96419 | 17580 ft | 315 kts | 198° |
| 2026-05-07 22:39 | 39.88185 | 2.95506 | 17151 ft | 314 kts | 198° |
| 2026-05-07 22:39 | 39.86115 | 2.94589 | 16736 ft | 314 kts | 199° |
| 2026-05-07 22:39 | 39.84155 | 2.93363 | 16374 ft | 313 kts | 212° |
| 2026-05-07 22:40 | 39.82490 | 2.91539 | 16014 ft | 313 kts | 226° |
| 2026-05-07 22:40 | 39.81205 | 2.89297 | 15639 ft | 313 kts | 234° |
| 2026-05-07 22:40 | 39.79984 | 2.86956 | 15264 ft | 313 kts | 235° |
| 2026-05-07 22:40 | 39.78751 | 2.84612 | 14806 ft | 316 kts | 234° |
| 2026-05-07 22:41 | 39.77504 | 2.82248 | 14367 ft | 318 kts | 234° |
| 2026-05-07 22:41 | 39.76247 | 2.79866 | 13923 ft | 321 kts | 235° |
| 2026-05-07 22:41 | 39.74978 | 2.77463 | 13445 ft | 323 kts | 235° |
| 2026-05-07 22:41 | 39.73705 | 2.75053 | 12943 ft | 324 kts | 235° |
| 2026-05-07 22:42 | 39.72425 | 2.72630 | 12447 ft | 325 kts | 235° |
| 2026-05-07 22:42 | 39.71141 | 2.70200 | 11971 ft | 326 kts | 234° |
| 2026-05-07 22:42 | 39.69860 | 2.67771 | 11491 ft | 326 kts | 235° |
| 2026-05-07 22:42 | 39.68583 | 2.65346 | 11002 ft | 326 kts | 236° |
| 2026-05-07 22:43 | 39.67308 | 2.62930 | 10387 ft | 321 kts | 236° |
| 2026-05-07 22:43 | 39.66060 | 2.60571 | 9794 ft | 313 kts | 236° |
| 2026-05-07 22:43 | 39.64838 | 2.58264 | 9132 ft | 307 kts | 236° |
| 2026-05-07 22:43 | 39.63641 | 2.56003 | 8483 ft | 301 kts | 236° |
| 2026-05-07 22:44 | 39.62477 | 2.53810 | 8051 ft | 288 kts | 236° |
| 2026-05-07 22:44 | 39.61361 | 2.51707 | 7599 ft | 278 kts | 236° |
| 2026-05-07 22:44 | 39.60276 | 2.49665 | 7158 ft | 274 kts | 236° |
| 2026-05-07 22:44 | 39.59201 | 2.47635 | 6717 ft | 276 kts | 237° |
| 2026-05-07 22:45 | 39.58112 | 2.45570 | 6361 ft | 274 kts | 237° |
| 2026-05-07 22:45 | 39.57045 | 2.43556 | 6100 ft | 267 kts | 235° |
| 2026-05-07 22:45 | 39.55731 | 2.41937 | 5870 ft | 259 kts | 206° |
| 2026-05-07 22:45 | 39.54034 | 2.41395 | 5575 ft | 249 kts | 174° |
| 2026-05-07 22:46 | 39.52420 | 2.41961 | 5163 ft | 238 kts | 145° |
| 2026-05-07 22:46 | 39.51082 | 2.43182 | 4713 ft | 235 kts | 140° |
| 2026-05-07 22:46 | 39.49770 | 2.44419 | 4254 ft | 230 kts | 140° |
| 2026-05-07 22:46 | 39.48488 | 2.45623 | 3565 ft | 235 kts | 140° |
| 2026-05-07 22:47 | 39.47130 | 2.46906 | 2933 ft | 236 kts | 138° |
| 2026-05-07 22:47 | 39.46134 | 2.48379 | 2923 ft | 212 kts | 115° |
| 2026-05-07 22:47 | 39.45693 | 2.50135 | 2920 ft | 202 kts | 94° |
| 2026-05-07 22:47 | 39.45798 | 2.51939 | 2922 ft | 198 kts | 73° |
| 2026-05-07 22:48 | 39.46363 | 2.53496 | 2919 ft | 187 kts | 58° |
| 2026-05-07 22:48 | 39.47015 | 2.54860 | 2869 ft | 170 kts | 59° |
| 2026-05-07 22:48 | 39.47616 | 2.56121 | 2674 ft | 161 kts | 59° |
| 2026-05-07 22:48 | 39.48190 | 2.57328 | 2485 ft | 154 kts | 58° |
| 2026-05-07 22:49 | 39.48750 | 2.58504 | 2284 ft | 152 kts | 59° |
| 2026-05-07 22:49 | 39.49304 | 2.59671 | 2084 ft | 152 kts | 59° |
| 2026-05-07 22:49 | 39.49858 | 2.60835 | 1883 ft | 152 kts | 59° |
| 2026-05-07 22:49 | 39.50411 | 2.61999 | 1707 ft | 152 kts | 59° |
| 2026-05-07 22:50 | 39.50959 | 2.63153 | 1485 ft | 150 kts | 59° |
| 2026-05-07 22:50 | 39.51477 | 2.64243 | 1291 ft | 136 kts | 59° |
| 2026-05-07 22:50 | 39.51960 | 2.65262 | 1107 ft | 130 kts | 59° |
| 2026-05-07 22:50 | 39.52433 | 2.66258 | 929 ft | 130 kts | 58° |
| 2026-05-07 22:51 | 39.52913 | 2.67271 | 760 ft | 132 kts | 59° |
| 2026-05-07 22:51 | 39.53400 | 2.68296 | 576 ft | 134 kts | 58° |
| 2026-05-07 22:51 | 39.53887 | 2.69324 | 390 ft | 134 kts | 59° |
| 2026-05-07 22:51 | 39.54378 | 2.70355 | 216 ft | 134 kts | 56° |
| 2026-05-07 22:52 | 39.54872 | 2.71389 | 52 ft | 134 kts | 56° |
| 2026-05-07 22:52 | 39.55310 | 2.72326 | 38 ft | 103 kts | 58° |
| 2026-05-07 22:52 | 39.55589 | 2.72918 | 38 ft | 40 kts | 58° |
| 2026-05-07 22:52 | 39.55705 | 2.73168 | 38 ft | 21 kts | 63° |
| 2026-05-07 22:53 | 39.55718 | 2.73349 | 38 ft | 20 kts | 88° |
| 2026-05-07 22:53 | 39.55717 | 2.73507 | 38 ft | 12 kts | 104° |
| 2026-05-07 22:53 | 39.55657 | 2.73514 | 38 ft | 7 kts | 214° |
| 2026-05-07 22:53 | 39.55603 | 2.73516 | 38 ft | 12 kts | 156° |
| 2026-05-07 22:54 | 39.55515 | 2.73583 | 38 ft | 17 kts | 148° |
| 2026-05-07 22:54 | 39.55403 | 2.73670 | 38 ft | 21 kts | 148° |
| 2026-05-07 22:54 | 39.55278 | 2.73771 | 37 ft | 18 kts | 148° |
| 2026-05-07 22:54 | 39.55192 | 2.73823 | 38 ft | 12 kts | 193° |
| 2026-05-07 22:55 | 39.55171 | 2.73750 | 36 ft | 8 kts | 298° |
| 2026-05-07 22:55 | 39.55174 | 2.73687 | 38 ft | 7 kts | 245° |
| 2026-05-07 22:55 | 39.55152 | 2.73638 | 38 ft | 6 kts | 238° |
| 2026-05-07 22:55 | 39.55131 | 2.73594 | 37 ft | 5 kts | 238° |
| 2026-05-07 22:56 | 39.55111 | 2.73566 | 38 ft | 3 kts | 194° |
| 2026-05-07 22:56 | 39.55093 | 2.73570 | 38 ft | 2 kts | 168° |
| 2026-05-07 22:56 | 39.55078 | 2.73575 | 38 ft | 2 kts | 164° |
| 2026-05-07 22:56 | 39.55067 | 2.73579 | 38 ft | 1 kts | 164° |
| 2026-05-07 22:57 | 39.55066 | 2.73579 | 35 ft | 0 kts | 164° |